Terminal Aerodrome Forecast
Issued by NWS Topeka, KS

Home | Current Version | Previous Version | Text Only | Print | Product List | Glossary On
Versions: 1 2 3 4 5 6 7 8 9 10 11 12 13 14 15 16 17 18 19 20 21 22 23 24 25 26
634
FTUS43 KTOP 280107 AAA
TAFTOP
TAF AMD
KTOP 280107Z 2801/2824 25014KT P6SM VCTS SCT020CB OVC100
     FM280400 14005KT P6SM SCT030 BKN100
     FM281500 22010KT P6SM SCT035=

USA.gov is the U.S. government's official web portal to all federal, state and local government web resources and services.